sensor_id;sensor_type;location;lat;lon;timestamp;temperature;humidity
3190;DHT22;1606;51.946;10.558;2022-11-20T00:01:22;1.30;99.90
3190;DHT22;1606;51.946;10.558;2022-11-20T00:03:51;1.30;99.70
3190;DHT22;1606;51.946;10.558;2022-11-20T00:06:21;1.30;99.50
3190;DHT22;1606;51.946;10.558;2022-11-20T00:08:52;1.30;99.40
3190;DHT22;1606;51.946;10.558;2022-11-20T00:11:22;1.20;99.20
3190;DHT22;1606;51.946;10.558;2022-11-20T00:13:52;1.20;99.30
3190;DHT22;1606;51.946;10.558;2022-11-20T00:16:21;1.10;99.70
3190;DHT22;1606;51.946;10.558;2022-11-20T00:18:50;1.10;99.50
3190;DHT22;1606;51.946;10.558;2022-11-20T00:21:20;1.10;99.70
3190;DHT22;1606;51.946;10.558;2022-11-20T00:23:50;1.10;99.90
3190;DHT22;1606;51.946;10.558;2022-11-20T00:26:22;1.10;99.80
3190;DHT22;1606;51.946;10.558;2022-11-20T00:28:52;1.00;99.90
3190;DHT22;1606;51.946;10.558;2022-11-20T00:31:20;0.90;99.90
3190;DHT22;1606;51.946;10.558;2022-11-20T00:33:49;0.80;99.90
3190;DHT22;1606;51.946;10.558;2022-11-20T00:36:18;0.80;99.90
3190;DHT22;1606;51.946;10.558;2022-11-20T00:38:50;0.80;99.90
3190;DHT22;1606;51.946;10.558;2022-11-20T00:41:20;0.90;99.90
3190;DHT22;1606;51.946;10.558;2022-11-20T00:43:48;0.80;99.90
3190;DHT22;1606;51.946;10.558;2022-11-20T00:46:18;0.80;99.90
3190;DHT22;1606;51.946;10.558;2022-11-20T00:48:46;0.70;99.90
3190;DHT22;1606;51.946;10.558;2022-11-20T00:51:15;0.80;99.90
3190;DHT22;1606;51.946;10.558;2022-11-20T00:53:44;1.00;99.90
3190;DHT22;1606;51.946;10.558;2022-11-20T00:56:14;1.10;99.50
3190;DHT22;1606;51.946;10.558;2022-11-20T00:58:45;1.00;99.30
3190;DHT22;1606;51.946;10.558;2022-11-20T01:01:14;1.00;99.20
3190;DHT22;1606;51.946;10.558;2022-11-20T01:03:44;1.00;99.20
3190;DHT22;1606;51.946;10.558;2022-11-20T01:06:14;1.00;99.20
3190;DHT22;1606;51.946;10.558;2022-11-20T01:08:43;1.00;99.10
3190;DHT22;1606;51.946;10.558;2022-11-20T01:11:12;0.90;98.70
3190;DHT22;1606;51.946;10.558;2022-11-20T01:13:41;0.80;98.70
3190;DHT22;1606;51.946;10.558;2022-11-20T01:16:12;0.60;99.00
3190;DHT22;1606;51.946;10.558;2022-11-20T01:18:41;0.60;99.50
3190;DHT22;1606;51.946;10.558;2022-11-20T01:21:11;0.70;99.80
3190;DHT22;1606;51.946;10.558;2022-11-20T01:23:41;0.70;99.50
3190;DHT22;1606;51.946;10.558;2022-11-20T01:26:11;0.60;99.60
3190;DHT22;1606;51.946;10.558;2022-11-20T01:28:40;0.50;99.40
3190;DHT22;1606;51.946;10.558;2022-11-20T01:31:14;0.50;99.80
3190;DHT22;1606;51.946;10.558;2022-11-20T01:33:43;0.40;99.90
3190;DHT22;1606;51.946;10.558;2022-11-20T01:36:12;0.60;99.90
3190;DHT22;1606;51.946;10.558;2022-11-20T01:38:40;0.70;99.70
3190;DHT22;1606;51.946;10.558;2022-11-20T01:41:10;0.60;99.50
3190;DHT22;1606;51.946;10.558;2022-11-20T01:43:58;0.60;99.60
3190;DHT22;1606;51.946;10.558;2022-11-20T01:46:27;0.60;99.90
3190;DHT22;1606;51.946;10.558;2022-11-20T01:48:58;0.60;99.90
3190;DHT22;1606;51.946;10.558;2022-11-20T01:51:30;0.70;99.90
3190;DHT22;1606;51.946;10.558;2022-11-20T01:54:01;0.70;99.80
3190;DHT22;1606;51.946;10.558;2022-11-20T01:56:33;0.70;99.50
3190;DHT22;1606;51.946;10.558;2022-11-20T01:59:05;0.70;99.20
3190;DHT22;1606;51.946;10.558;2022-11-20T02:01:36;0.60;99.30
3190;DHT22;1606;51.946;10.558;2022-11-20T02:04:06;0.50;99.30
3190;DHT22;1606;51.946;10.558;2022-11-20T02:06:37;0.30;99.70
3190;DHT22;1606;51.946;10.558;2022-11-20T02:09:06;0.40;99.90
3190;DHT22;1606;51.946;10.558;2022-11-20T02:11:34;0.50;99.90
3190;DHT22;1606;51.946;10.558;2022-11-20T02:14:02;0.60;99.90
3190;DHT22;1606;51.946;10.558;2022-11-20T02:16:31;0.50;99.90
3190;DHT22;1606;51.946;10.558;2022-11-20T02:19:05;0.50;99.90
3190;DHT22;1606;51.946;10.558;2022-11-20T02:21:38;0.60;99.90
3190;DHT22;1606;51.946;10.558;2022-11-20T02:24:10;0.50;99.30
3190;DHT22;1606;51.946;10.558;2022-11-20T02:26:43;0.40;99.50
3190;DHT22;1606;51.946;10.558;2022-11-20T02:29:13;0.40;99.60
3190;DHT22;1606;51.946;10.558;2022-11-20T02:31:42;0.50;99.60
3190;DHT22;1606;51.946;10.558;2022-11-20T02:34:11;0.50;99.50
3190;DHT22;1606;51.946;10.558;2022-11-20T02:36:40;0.40;99.70
3190;DHT22;1606;51.946;10.558;2022-11-20T02:39:11;0.40;99.80
3190;DHT22;1606;51.946;10.558;2022-11-20T02:41:40;0.50;99.60
3190;DHT22;1606;51.946;10.558;2022-11-20T02:44:08;0.40;99.40
3190;DHT22;1606;51.946;10.558;2022-11-20T02:46:36;0.40;99.90
3190;DHT22;1606;51.946;10.558;2022-11-20T02:49:05;0.30;99.50
3190;DHT22;1606;51.946;10.558;2022-11-20T02:51:32;0.30;99.40
3190;DHT22;1606;51.946;10.558;2022-11-20T02:54:00;0.20;99.70
3190;DHT22;1606;51.946;10.558;2022-11-20T02:56:30;0.00;99.90
3190;DHT22;1606;51.946;10.558;2022-11-20T02:58:58;0.10;99.90
3190;DHT22;1606;51.946;10.558;2022-11-20T03:01:26;0.00;99.60
3190;DHT22;1606;51.946;10.558;2022-11-20T03:03:54;-0.20;99.70
3190;DHT22;1606;51.946;10.558;2022-11-20T03:06:22;-0.20;99.90
3190;DHT22;1606;51.946;10.558;2022-11-20T03:08:50;-0.10;99.90
3190;DHT22;1606;51.946;10.558;2022-11-20T03:11:18;-0.20;99.90
3190;DHT22;1606;51.946;10.558;2022-11-20T03:13:47;-0.30;99.90
3190;DHT22;1606;51.946;10.558;2022-11-20T03:16:17;-0.20;99.90
3190;DHT22;1606;51.946;10.558;2022-11-20T03:18:45;-0.10;99.90
3190;DHT22;1606;51.946;10.558;2022-11-20T03:21:14;0.00;99.90
3190;DHT22;1606;51.946;10.558;2022-11-20T03:23:42;0.10;99.90
3190;DHT22;1606;51.946;10.558;2022-11-20T03:26:13;0.00;99.90
3190;DHT22;1606;51.946;10.558;2022-11-20T03:28:42;0.00;99.90
3190;DHT22;1606;51.946;10.558;2022-11-20T03:31:15;0.10;99.90
3190;DHT22;1606;51.946;10.558;2022-11-20T03:33:43;0.00;99.30
3190;DHT22;1606;51.946;10.558;2022-11-20T03:36:13;0.00;99.70
3190;DHT22;1606;51.946;10.558;2022-11-20T03:38:41;0.10;99.80
3190;DHT22;1606;51.946;10.558;2022-11-20T03:41:10;0.00;99.80
3190;DHT22;1606;51.946;10.558;2022-11-20T03:43:39;0.00;99.90
3190;DHT22;1606;51.946;10.558;2022-11-20T03:46:07;0.00;99.90
3190;DHT22;1606;51.946;10.558;2022-11-20T03:48:37;0.00;99.90
3190;DHT22;1606;51.946;10.558;2022-11-20T03:51:09;0.10;99.90
3190;DHT22;1606;51.946;10.558;2022-11-20T03:53:37;0.10;99.90
3190;DHT22;1606;51.946;10.558;2022-11-20T03:56:06;0.10;99.90
3190;DHT22;1606;51.946;10.558;2022-11-20T03:58:34;-0.10;99.70
3190;DHT22;1606;51.946;10.558;2022-11-20T04:01:07;-0.20;99.80
3190;DHT22;1606;51.946;10.558;2022-11-20T04:03:37;-0.20;99.90
3190;DHT22;1606;51.946;10.558;2022-11-20T04:06:06;-0.10;99.90
3190;DHT22;1606;51.946;10.558;2022-11-20T04:08:35;-0.10;99.90
3190;DHT22;1606;51.946;10.558;2022-11-20T04:11:10;0.00;99.90
3190;DHT22;1606;51.946;10.558;2022-11-20T04:13:39;0.10;99.90
3190;DHT22;1606;51.946;10.558;2022-11-20T04:16:07;0.20;99.70
3190;DHT22;1606;51.946;10.558;2022-11-20T04:18:36;0.00;99.30
3190;DHT22;1606;51.946;10.558;2022-11-20T04:21:05;0.00;99.30
3190;DHT22;1606;51.946;10.558;2022-11-20T04:23:33;-0.10;99.50
3190;DHT22;1606;51.946;10.558;2022-11-20T04:26:02;0.00;99.70
3190;DHT22;1606;51.946;10.558;2022-11-20T04:28:30;0.10;99.60
3190;DHT22;1606;51.946;10.558;2022-11-20T04:31:03;0.10;99.50
3190;DHT22;1606;51.946;10.558;2022-11-20T04:33:31;0.10;99.50
3190;DHT22;1606;51.946;10.558;2022-11-20T04:36:02;0.10;99.40
3190;DHT22;1606;51.946;10.558;2022-11-20T04:38:31;0.10;99.50
3190;DHT22;1606;51.946;10.558;2022-11-20T04:40:59;0.10;99.10
3190;DHT22;1606;51.946;10.558;2022-11-20T04:43:28;-0.10;98.80
3190;DHT22;1606;51.946;10.558;2022-11-20T04:45:57;-0.20;98.80
3190;DHT22;1606;51.946;10.558;2022-11-20T04:48:26;-0.30;98.80
3190;DHT22;1606;51.946;10.558;2022-11-20T04:50:55;-0.30;99.10
3190;DHT22;1606;51.946;10.558;2022-11-20T04:53:24;-0.20;99.10
3190;DHT22;1606;51.946;10.558;2022-11-20T04:55:59;-0.10;99.00
3190;DHT22;1606;51.946;10.558;2022-11-20T04:58:27;-0.10;99.00
3190;DHT22;1606;51.946;10.558;2022-11-20T05:01:01;0.00;99.00
3190;DHT22;1606;51.946;10.558;2022-11-20T05:03:30;0.10;98.70
3190;DHT22;1606;51.946;10.558;2022-11-20T05:06:00;0.20;98.60
3190;DHT22;1606;51.946;10.558;2022-11-20T05:08:30;0.30;98.40
3190;DHT22;1606;51.946;10.558;2022-11-20T05:11:02;0.30;98.00
3190;DHT22;1606;51.946;10.558;2022-11-20T05:13:30;0.20;97.80
3190;DHT22;1606;51.946;10.558;2022-11-20T05:16:01;0.30;97.90
3190;DHT22;1606;51.946;10.558;2022-11-20T05:18:30;0.10;97.80
3190;DHT22;1606;51.946;10.558;2022-11-20T05:20:58;0.10;97.90
3190;DHT22;1606;51.946;10.558;2022-11-20T05:23:28;0.00;97.70
3190;DHT22;1606;51.946;10.558;2022-11-20T05:25:58;-0.20;97.60
3190;DHT22;1606;51.946;10.558;2022-11-20T05:28:27;-0.20;98.00
3190;DHT22;1606;51.946;10.558;2022-11-20T05:30:55;-0.20;98.00
3190;DHT22;1606;51.946;10.558;2022-11-20T05:33:23;0.00;98.20
3190;DHT22;1606;51.946;10.558;2022-11-20T05:35:51;0.00;97.90
3190;DHT22;1606;51.946;10.558;2022-11-20T05:38:19;-0.10;97.60
3190;DHT22;1606;51.946;10.558;2022-11-20T05:40:47;-0.30;97.80
3190;DHT22;1606;51.946;10.558;2022-11-20T05:43:16;-0.20;98.10
3190;DHT22;1606;51.946;10.558;2022-11-20T05:45:51;-0.30;98.00
3190;DHT22;1606;51.946;10.558;2022-11-20T05:48:19;-0.50;98.00
3190;DHT22;1606;51.946;10.558;2022-11-20T05:50:47;-0.50;98.10
3190;DHT22;1606;51.946;10.558;2022-11-20T05:53:15;-0.50;98.20
3190;DHT22;1606;51.946;10.558;2022-11-20T05:55:43;-0.90;98.30
3190;DHT22;1606;51.946;10.558;2022-11-20T05:58:11;-0.90;98.80
3190;DHT22;1606;51.946;10.558;2022-11-20T06:00:40;-0.90;99.10
3190;DHT22;1606;51.946;10.558;2022-11-20T06:03:08;-0.90;99.20
3190;DHT22;1606;51.946;10.558;2022-11-20T06:05:36;-0.90;99.60
3190;DHT22;1606;51.946;10.558;2022-11-20T06:08:04;-0.80;99.50
3190;DHT22;1606;51.946;10.558;2022-11-20T06:10:32;-0.50;99.50
3190;DHT22;1606;51.946;10.558;2022-11-20T06:12:59;-0.40;99.10
3190;DHT22;1606;51.946;10.558;2022-11-20T06:15:27;-0.30;98.80
3190;DHT22;1606;51.946;10.558;2022-11-20T06:17:56;-0.20;98.50
3190;DHT22;1606;51.946;10.558;2022-11-20T06:20:25;-0.40;98.30
3190;DHT22;1606;51.946;10.558;2022-11-20T06:22:53;-0.40;98.50
3190;DHT22;1606;51.946;10.558;2022-11-20T06:25:21;-0.40;98.40
3190;DHT22;1606;51.946;10.558;2022-11-20T06:27:48;-0.40;98.20
3190;DHT22;1606;51.946;10.558;2022-11-20T06:30:16;-0.20;98.20
3190;DHT22;1606;51.946;10.558;2022-11-20T06:32:44;-0.10;97.80
3190;DHT22;1606;51.946;10.558;2022-11-20T06:35:13;-0.20;97.60
3190;DHT22;1606;51.946;10.558;2022-11-20T06:37:42;-0.30;97.50
3190;DHT22;1606;51.946;10.558;2022-11-20T06:40:11;-0.20;97.80
3190;DHT22;1606;51.946;10.558;2022-11-20T06:42:39;-0.10;97.80
3190;DHT22;1606;51.946;10.558;2022-11-20T06:45:08;-0.10;97.60
3190;DHT22;1606;51.946;10.558;2022-11-20T06:47:36;-0.10;97.60
3190;DHT22;1606;51.946;10.558;2022-11-20T06:50:04;-0.20;97.70
3190;DHT22;1606;51.946;10.558;2022-11-20T06:52:34;-0.20;97.80
3190;DHT22;1606;51.946;10.558;2022-11-20T06:55:09;-0.30;97.90
3190;DHT22;1606;51.946;10.558;2022-11-20T06:57:36;-0.20;98.60
3190;DHT22;1606;51.946;10.558;2022-11-20T07:00:05;-0.10;98.30
3190;DHT22;1606;51.946;10.558;2022-11-20T07:02:33;0.00;98.00
3190;DHT22;1606;51.946;10.558;2022-11-20T07:05:01;-0.10;98.00
3190;DHT22;1606;51.946;10.558;2022-11-20T07:07:29;-0.10;98.00
3190;DHT22;1606;51.946;10.558;2022-11-20T07:09:58;-0.10;98.10
3190;DHT22;1606;51.946;10.558;2022-11-20T07:12:26;-0.20;98.20
3190;DHT22;1606;51.946;10.558;2022-11-20T07:14:54;-0.20;98.40
3190;DHT22;1606;51.946;10.558;2022-11-20T07:17:22;-0.30;98.30
3190;DHT22;1606;51.946;10.558;2022-11-20T07:19:49;-0.30;98.80
3190;DHT22;1606;51.946;10.558;2022-11-20T07:22:17;-0.10;99.10
3190;DHT22;1606;51.946;10.558;2022-11-20T07:24:48;-0.10;99.10
3190;DHT22;1606;51.946;10.558;2022-11-20T07:27:17;0.00;99.10
3190;DHT22;1606;51.946;10.558;2022-11-20T07:29:45;0.00;99.20
3190;DHT22;1606;51.946;10.558;2022-11-20T07:32:13;0.00;99.40
3190;DHT22;1606;51.946;10.558;2022-11-20T07:34:41;0.00;99.60
3190;DHT22;1606;51.946;10.558;2022-11-20T07:37:09;-0.10;99.80
3190;DHT22;1606;51.946;10.558;2022-11-20T07:39:37;-0.10;99.90
3190;DHT22;1606;51.946;10.558;2022-11-20T07:42:06;-0.10;99.90
3190;DHT22;1606;51.946;10.558;2022-11-20T07:44:35;-0.10;99.90
3190;DHT22;1606;51.946;10.558;2022-11-20T07:47:03;-0.10;99.90
3190;DHT22;1606;51.946;10.558;2022-11-20T07:49:31;-0.10;99.90
3190;DHT22;1606;51.946;10.558;2022-11-20T07:51:59;0.00;99.90
3190;DHT22;1606;51.946;10.558;2022-11-20T07:54:31;0.10;99.90
3190;DHT22;1606;51.946;10.558;2022-11-20T07:56:58;0.10;99.90
3190;DHT22;1606;51.946;10.558;2022-11-20T07:59:26;0.20;99.90
3190;DHT22;1606;51.946;10.558;2022-11-20T08:01:56;0.10;99.90
3190;DHT22;1606;51.946;10.558;2022-11-20T08:04:23;0.30;99.90
3190;DHT22;1606;51.946;10.558;2022-11-20T08:06:52;0.30;99.90
3190;DHT22;1606;51.946;10.558;2022-11-20T08:09:20;0.30;99.90
3190;DHT22;1606;51.946;10.558;2022-11-20T08:11:48;0.30;99.90
3190;DHT22;1606;51.946;10.558;2022-11-20T08:14:33;0.40;99.90
3190;DHT22;1606;51.946;10.558;2022-11-20T08:17:02;0.50;99.90
3190;DHT22;1606;51.946;10.558;2022-11-20T08:19:30;0.60;99.90
3190;DHT22;1606;51.946;10.558;2022-11-20T08:21:58;0.60;99.90
3190;DHT22;1606;51.946;10.558;2022-11-20T08:24:26;0.40;99.90
3190;DHT22;1606;51.946;10.558;2022-11-20T08:26:57;0.30;99.90
3190;DHT22;1606;51.946;10.558;2022-11-20T08:29:26;0.20;99.90
3190;DHT22;1606;51.946;10.558;2022-11-20T08:31:54;0.00;99.90
3190;DHT22;1606;51.946;10.558;2022-11-20T08:34:23;0.10;99.90
3190;DHT22;1606;51.946;10.558;2022-11-20T08:36:51;0.30;99.90
3190;DHT22;1606;51.946;10.558;2022-11-20T08:39:18;0.40;99.90
3190;DHT22;1606;51.946;10.558;2022-11-20T08:41:47;0.50;99.90
3190;DHT22;1606;51.946;10.558;2022-11-20T08:44:14;0.50;99.90
3190;DHT22;1606;51.946;10.558;2022-11-20T08:46:42;0.70;99.90
3190;DHT22;1606;51.946;10.558;2022-11-20T08:49:13;0.60;99.90
3190;DHT22;1606;51.946;10.558;2022-11-20T08:51:42;0.50;99.90
3190;DHT22;1606;51.946;10.558;2022-11-20T08:54:10;0.50;99.90
3190;DHT22;1606;51.946;10.558;2022-11-20T08:56:38;0.50;99.90
3190;DHT22;1606;51.946;10.558;2022-11-20T08:59:06;0.60;99.90
3190;DHT22;1606;51.946;10.558;2022-11-20T09:01:54;0.70;99.90
3190;DHT22;1606;51.946;10.558;2022-11-20T09:04:21;0.70;99.90
3190;DHT22;1606;51.946;10.558;2022-11-20T09:06:51;0.70;99.90
3190;DHT22;1606;51.946;10.558;2022-11-20T09:09:18;0.80;99.90
3190;DHT22;1606;51.946;10.558;2022-11-20T09:11:47;0.90;99.90
3190;DHT22;1606;51.946;10.558;2022-11-20T09:14:16;0.90;99.90
3190;DHT22;1606;51.946;10.558;2022-11-20T09:16:44;1.00;99.90
3190;DHT22;1606;51.946;10.558;2022-11-20T09:19:12;1.00;99.90
3190;DHT22;1606;51.946;10.558;2022-11-20T09:22:02;1.10;99.90
3190;DHT22;1606;51.946;10.558;2022-11-20T09:24:30;1.40;99.90
3190;DHT22;1606;51.946;10.558;2022-11-20T09:26:58;1.40;99.90
3190;DHT22;1606;51.946;10.558;2022-11-20T09:29:28;1.50;99.90
3190;DHT22;1606;51.946;10.558;2022-11-20T09:31:56;1.80;99.90
3190;DHT22;1606;51.946;10.558;2022-11-20T09:34:24;2.10;99.90
3190;DHT22;1606;51.946;10.558;2022-11-20T09:36:52;2.00;99.90
3190;DHT22;1606;51.946;10.558;2022-11-20T09:39:21;2.20;99.90
3190;DHT22;1606;51.946;10.558;2022-11-20T09:42:08;2.30;99.90
3190;DHT22;1606;51.946;10.558;2022-11-20T09:44:48;2.70;99.90
3190;DHT22;1606;51.946;10.558;2022-11-20T09:47:25;2.70;99.90
3190;DHT22;1606;51.946;10.558;2022-11-20T09:50:06;2.50;99.90
3190;DHT22;1606;51.946;10.558;2022-11-20T09:52:51;2.60;99.90
3190;DHT22;1606;51.946;10.558;2022-11-20T09:55:24;2.70;99.90
3190;DHT22;1606;51.946;10.558;2022-11-20T09:57:53;2.90;99.90
3190;DHT22;1606;51.946;10.558;2022-11-20T10:00:21;3.10;99.90
3190;DHT22;1606;51.946;10.558;2022-11-20T10:02:54;3.20;99.90
3190;DHT22;1606;51.946;10.558;2022-11-20T10:05:27;3.40;99.90
3190;DHT22;1606;51.946;10.558;2022-11-20T10:08:16;3.50;99.90
3190;DHT22;1606;51.946;10.558;2022-11-20T10:10:47;3.50;99.90
3190;DHT22;1606;51.946;10.558;2022-11-20T10:13:32;3.50;99.90
3190;DHT22;1606;51.946;10.558;2022-11-20T10:16:18;3.40;99.90
3190;DHT22;1606;51.946;10.558;2022-11-20T10:18:59;3.70;99.90
3190;DHT22;1606;51.946;10.558;2022-11-20T10:21:38;3.80;99.90
3190;DHT22;1606;51.946;10.558;2022-11-20T10:24:25;3.90;99.90
3190;DHT22;1606;51.946;10.558;2022-11-20T10:27:02;4.00;99.90
3190;DHT22;1606;51.946;10.558;2022-11-20T10:29:33;4.00;99.90
3190;DHT22;1606;51.946;10.558;2022-11-20T10:32:03;4.00;99.90
3190;DHT22;1606;51.946;10.558;2022-11-20T10:34:37;4.10;99.90
3190;DHT22;1606;51.946;10.558;2022-11-20T10:37:11;4.10;99.90
3190;DHT22;1606;51.946;10.558;2022-11-20T10:39:47;3.90;99.90
3190;DHT22;1606;51.946;10.558;2022-11-20T10:42:25;3.80;99.90
3190;DHT22;1606;51.946;10.558;2022-11-20T10:45:04;3.60;99.90
3190;DHT22;1606;51.946;10.558;2022-11-20T10:47:37;3.70;99.90
3190;DHT22;1606;51.946;10.558;2022-11-20T10:50:09;3.90;99.90
3190;DHT22;1606;51.946;10.558;2022-11-20T10:52:51;4.00;99.90
3190;DHT22;1606;51.946;10.558;2022-11-20T10:55:28;4.20;99.90
3190;DHT22;1606;51.946;10.558;2022-11-20T10:58:03;4.30;99.90
3190;DHT22;1606;51.946;10.558;2022-11-20T11:00:33;4.40;99.90
3190;DHT22;1606;51.946;10.558;2022-11-20T11:03:01;4.40;99.90
3190;DHT22;1606;51.946;10.558;2022-11-20T11:05:37;4.50;99.90
3190;DHT22;1606;51.946;10.558;2022-11-20T11:08:12;4.50;99.90
3190;DHT22;1606;51.946;10.558;2022-11-20T11:10:45;4.50;99.90
3190;DHT22;1606;51.946;10.558;2022-11-20T11:13:24;4.50;99.90
3190;DHT22;1606;51.946;10.558;2022-11-20T11:15:53;4.80;99.90
3190;DHT22;1606;51.946;10.558;2022-11-20T11:18:25;5.00;99.70
3190;DHT22;1606;51.946;10.558;2022-11-20T11:20:54;5.10;99.50
3190;DHT22;1606;51.946;10.558;2022-11-20T11:23:32;5.30;99.00
3190;DHT22;1606;51.946;10.558;2022-11-20T11:26:02;5.40;98.90
3190;DHT22;1606;51.946;10.558;2022-11-20T11:28:31;5.30;99.00
3190;DHT22;1606;51.946;10.558;2022-11-20T11:30:59;5.40;99.50
3190;DHT22;1606;51.946;10.558;2022-11-20T11:33:28;5.30;99.30
3190;DHT22;1606;51.946;10.558;2022-11-20T11:35:58;5.30;99.00
3190;DHT22;1606;51.946;10.558;2022-11-20T11:38:34;5.40;99.10
3190;DHT22;1606;51.946;10.558;2022-11-20T11:41:03;5.60;98.80
3190;DHT22;1606;51.946;10.558;2022-11-20T11:43:34;5.90;98.60
3190;DHT22;1606;51.946;10.558;2022-11-20T11:46:30;6.00;98.80
3190;DHT22;1606;51.946;10.558;2022-11-20T11:49:00;5.90;98.40
3190;DHT22;1606;51.946;10.558;2022-11-20T11:51:33;5.70;98.40
3190;DHT22;1606;51.946;10.558;2022-11-20T11:54:10;5.60;98.60
3190;DHT22;1606;51.946;10.558;2022-11-20T11:56:41;5.70;99.20
3190;DHT22;1606;51.946;10.558;2022-11-20T11:59:14;5.70;98.50
3190;DHT22;1606;51.946;10.558;2022-11-20T12:01:45;5.90;98.70
3190;DHT22;1606;51.946;10.558;2022-11-20T12:04:21;5.90;98.30
3190;DHT22;1606;51.946;10.558;2022-11-20T12:06:58;5.80;98.10
3190;DHT22;1606;51.946;10.558;2022-11-20T12:09:52;5.80;98.50
3190;DHT22;1606;51.946;10.558;2022-11-20T12:12:27;5.70;97.90
3190;DHT22;1606;51.946;10.558;2022-11-20T12:14:58;5.70;98.20
3190;DHT22;1606;51.946;10.558;2022-11-20T12:17:26;5.70;98.00
3190;DHT22;1606;51.946;10.558;2022-11-20T12:19:54;5.40;97.90
3190;DHT22;1606;51.946;10.558;2022-11-20T12:22:31;5.50;98.60
3190;DHT22;1606;51.946;10.558;2022-11-20T12:25:06;5.40;97.90
3190;DHT22;1606;51.946;10.558;2022-11-20T12:30:24;5.20;98.00
3190;DHT22;1606;51.946;10.558;2022-11-20T12:33:05;5.20;98.70
3190;DHT22;1606;51.946;10.558;2022-11-20T12:35:48;5.00;98.80
3190;DHT22;1606;51.946;10.558;2022-11-20T12:38:42;4.80;99.20
3190;DHT22;1606;51.946;10.558;2022-11-20T12:41:21;4.70;99.20
3190;DHT22;1606;51.946;10.558;2022-11-20T12:44:16;5.00;99.80
3190;DHT22;1606;51.946;10.558;2022-11-20T12:47:14;5.10;98.40
3190;DHT22;1606;51.946;10.558;2022-11-20T12:49:50;5.00;98.10
3190;DHT22;1606;51.946;10.558;2022-11-20T12:52:30;4.80;97.40
3190;DHT22;1606;51.946;10.558;2022-11-20T12:55:16;4.60;96.80
3190;DHT22;1606;51.946;10.558;2022-11-20T12:57:53;4.30;96.40
3190;DHT22;1606;51.946;10.558;2022-11-20T13:00:22;4.30;97.10
3190;DHT22;1606;51.946;10.558;2022-11-20T13:03:16;4.50;96.40
3190;DHT22;1606;51.946;10.558;2022-11-20T13:05:57;4.60;96.60
3190;DHT22;1606;51.946;10.558;2022-11-20T13:08:29;4.40;96.20
3190;DHT22;1606;51.946;10.558;2022-11-20T13:11:04;4.70;96.10
3190;DHT22;1606;51.946;10.558;2022-11-20T13:13:42;4.90;95.70
3190;DHT22;1606;51.946;10.558;2022-11-20T13:16:16;5.00;96.20
3190;DHT22;1606;51.946;10.558;2022-11-20T13:18:46;4.70;95.90
3190;DHT22;1606;51.946;10.558;2022-11-20T13:21:16;4.50;96.20
3190;DHT22;1606;51.946;10.558;2022-11-20T13:23:45;4.70;96.90
3190;DHT22;1606;51.946;10.558;2022-11-20T13:26:19;4.90;96.90
3190;DHT22;1606;51.946;10.558;2022-11-20T13:28:59;4.90;96.50
3190;DHT22;1606;51.946;10.558;2022-11-20T13:31:34;4.70;96.40
3190;DHT22;1606;51.946;10.558;2022-11-20T13:34:06;4.60;97.40
3190;DHT22;1606;51.946;10.558;2022-11-20T13:36:34;4.50;97.20
3190;DHT22;1606;51.946;10.558;2022-11-20T13:39:03;4.50;97.90
3190;DHT22;1606;51.946;10.558;2022-11-20T13:41:33;4.60;97.60
3190;DHT22;1606;51.946;10.558;2022-11-20T13:44:11;4.50;97.70
3190;DHT22;1606;51.946;10.558;2022-11-20T13:46:42;4.50;98.30
3190;DHT22;1606;51.946;10.558;2022-11-20T13:49:23;4.70;98.70
3190;DHT22;1606;51.946;10.558;2022-11-20T13:51:53;4.90;98.70
3190;DHT22;1606;51.946;10.558;2022-11-20T13:57:47;4.80;98.50
3190;DHT22;1606;51.946;10.558;2022-11-20T14:00:19;4.80;98.40
3190;DHT22;1606;51.946;10.558;2022-11-20T14:02:58;4.80;98.30
3190;DHT22;1606;51.946;10.558;2022-11-20T14:05:31;4.80;98.60
3190;DHT22;1606;51.946;10.558;2022-11-20T14:08:02;4.80;98.40
3190;DHT22;1606;51.946;10.558;2022-11-20T14:10:32;4.80;98.90
3190;DHT22;1606;51.946;10.558;2022-11-20T14:13:10;5.00;98.60
3190;DHT22;1606;51.946;10.558;2022-11-20T14:15:38;4.80;97.90
3190;DHT22;1606;51.946;10.558;2022-11-20T14:18:13;4.70;97.70
3190;DHT22;1606;51.946;10.558;2022-11-20T14:20:43;4.30;97.50
3190;DHT22;1606;51.946;10.558;2022-11-20T14:23:11;4.40;98.20
3190;DHT22;1606;51.946;10.558;2022-11-20T14:25:42;4.60;97.90
3190;DHT22;1606;51.946;10.558;2022-11-20T14:28:24;4.80;97.80
3190;DHT22;1606;51.946;10.558;2022-11-20T14:30:53;4.90;97.20
3190;DHT22;1606;51.946;10.558;2022-11-20T14:33:22;4.80;96.70
3190;DHT22;1606;51.946;10.558;2022-11-20T14:35:54;4.80;97.00
3190;DHT22;1606;51.946;10.558;2022-11-20T14:38:25;4.90;96.80
3190;DHT22;1606;51.946;10.558;2022-11-20T14:40:53;4.90;96.60
3190;DHT22;1606;51.946;10.558;2022-11-20T14:43:23;4.80;96.80
3190;DHT22;1606;51.946;10.558;2022-11-20T14:45:59;5.00;97.00
3190;DHT22;1606;51.946;10.558;2022-11-20T14:48:31;5.00;97.60
3190;DHT22;1606;51.946;10.558;2022-11-20T14:51:01;5.00;97.20
3190;DHT22;1606;51.946;10.558;2022-11-20T14:53:29;5.00;97.30
3190;DHT22;1606;51.946;10.558;2022-11-20T14:55:59;5.00;97.60
3190;DHT22;1606;51.946;10.558;2022-11-20T14:58:28;5.10;97.20
3190;DHT22;1606;51.946;10.558;2022-11-20T15:00:59;5.00;96.80
3190;DHT22;1606;51.946;10.558;2022-11-20T15:03:34;4.90;97.10
3190;DHT22;1606;51.946;10.558;2022-11-20T15:06:04;4.90;97.40
3190;DHT22;1606;51.946;10.558;2022-11-20T15:08:34;5.00;97.30
3190;DHT22;1606;51.946;10.558;2022-11-20T15:11:02;4.80;97.20
3190;DHT22;1606;51.946;10.558;2022-11-20T15:13:32;4.70;97.70
3190;DHT22;1606;51.946;10.558;2022-11-20T15:16:02;4.80;97.70
3190;DHT22;1606;51.946;10.558;2022-11-20T15:18:32;4.60;97.30
3190;DHT22;1606;51.946;10.558;2022-11-20T15:21:10;4.40;97.40
3190;DHT22;1606;51.946;10.558;2022-11-20T15:23:38;4.60;98.10
3190;DHT22;1606;51.946;10.558;2022-11-20T15:26:06;4.90;97.70
3190;DHT22;1606;51.946;10.558;2022-11-20T15:28:36;4.90;97.40
3190;DHT22;1606;51.946;10.558;2022-11-20T15:31:09;4.90;97.30
3190;DHT22;1606;51.946;10.558;2022-11-20T15:33:38;5.10;97.20
3190;DHT22;1606;51.946;10.558;2022-11-20T15:36:08;5.10;96.80
3190;DHT22;1606;51.946;10.558;2022-11-20T15:38:36;5.20;96.80
3190;DHT22;1606;51.946;10.558;2022-11-20T15:41:04;5.20;96.90
3190;DHT22;1606;51.946;10.558;2022-11-20T15:43:32;5.10;97.30
3190;DHT22;1606;51.946;10.558;2022-11-20T15:46:02;4.90;97.80
3190;DHT22;1606;51.946;10.558;2022-11-20T15:48:34;4.80;98.00
3190;DHT22;1606;51.946;10.558;2022-11-20T15:51:06;4.80;98.10
3190;DHT22;1606;51.946;10.558;2022-11-20T15:53:36;4.80;98.40
3190;DHT22;1606;51.946;10.558;2022-11-20T15:56:04;4.90;98.00
3190;DHT22;1606;51.946;10.558;2022-11-20T15:58:32;4.80;98.00
3190;DHT22;1606;51.946;10.558;2022-11-20T16:00:59;4.70;97.80
3190;DHT22;1606;51.946;10.558;2022-11-20T16:03:27;4.70;97.90
3190;DHT22;1606;51.946;10.558;2022-11-20T16:05:56;4.60;97.60
3190;DHT22;1606;51.946;10.558;2022-11-20T16:08:24;4.50;97.60
3190;DHT22;1606;51.946;10.558;2022-11-20T16:10:53;4.50;98.00
3190;DHT22;1606;51.946;10.558;2022-11-20T16:13:21;4.50;98.00
3190;DHT22;1606;51.946;10.558;2022-11-20T16:16:10;4.40;97.90
3190;DHT22;1606;51.946;10.558;2022-11-20T16:18:39;4.50;98.10
3190;DHT22;1606;51.946;10.558;2022-11-20T16:21:11;4.50;98.10
3190;DHT22;1606;51.946;10.558;2022-11-20T16:23:40;4.50;98.20
3190;DHT22;1606;51.946;10.558;2022-11-20T16:26:10;4.50;98.10
3190;DHT22;1606;51.946;10.558;2022-11-20T16:28:39;4.40;98.20
3190;DHT22;1606;51.946;10.558;2022-11-20T16:31:11;4.40;98.40